Time;durP1;ratioP1;P1;durP2;ratioP2;P2;SDS_P1;SDS_P2;PMS_P1;PMS_P2;Temp;Humidity;BMP_temperature;BMP_pressure;BME280_temperature;BME280_humidity;BME280_pressure;Samples;Min_cycle;Max_cycle;Signal;HPM_P1;HPM_P2
2021/07/03 03:28:07;;;;;;;85.90;46.15;;;;;;;;;;6259689;22;19919;31
2021/07/03 03:30:40;;;;;;;76.93;44.53;;;;;;;;;;5073352;28;39172;-83
2021/07/03 04:12:14;;;;;;;74.50;43.90;;;;;;;;;;6036532;22;20033;-84
2021/07/03 04:28:50;;;;;;;63.42;39.72;;;;;;;;;;5826594;22;20057;-82
2021/07/03 04:31:19;;;;;;;66.93;40.78;;;;;;;;;;5096033;28;37622;-83
2021/07/03 04:38:58;;;;;;;65.07;40.63;;;;;;;;;;6057696;22;20041;-82
2021/07/03 04:57:12;;;;;;;68.78;42.15;;;;;;;;;;5698157;22;20044;-84
2021/07/03 05:15:17;;;;;;;63.63;42.58;;;;;;;;;;5398246;22;20071;-84
2021/07/03 05:31:58;;;;;;;51.70;36.40;;;;;;;;;;5662178;22;20030;-82
2021/07/03 05:37:07;;;;;;;45.25;32.20;;;;;;;;;;5910778;22;20046;-83
2021/07/03 05:56:52;;;;;;;36.78;29.23;;;;;;;;;;5936504;22;20049;-82
2021/07/03 06:07:07;;;;;;;32.55;25.00;;;;;;;;;;5880617;22;20051;-81
2021/07/03 06:27:30;;;;;;;25.45;20.85;;;;;;;;;;6257936;22;21478;31
2021/07/03 06:38:34;;;;;;;25.17;20.13;;;;;;;;;;6227241;22;20023;31
2021/07/03 06:44:18;;;;;;;22.08;17.92;;;;;;;;;;5168062;22;50413;-79
2021/07/03 06:46:51;;;;;;;23.20;18.27;;;;;;;;;;5093721;28;39958;-82
2021/07/03 06:51:56;;;;;;;22.48;17.05;;;;;;;;;;5329569;22;20051;-81
2021/07/03 06:54:23;;;;;;;21.13;15.95;;;;;;;;;;5097207;28;38723;-81
2021/07/03 07:23:02;;;;;;;15.93;13.02;;;;;;;;;;5878228;22;20045;-82
2021/07/03 07:28:05;;;;;;;15.55;13.13;;;;;;;;;;6075350;22;20059;-80
2021/07/03 07:39:30;;;;;;;17.58;12.48;;;;;;;;;;5641202;22;20203;-80
2021/07/03 07:44:34;;;;;;;16.33;14.00;;;;;;;;;;6267916;22;20031;31
2021/07/03 07:47:03;;;;;;;17.30;14.30;;;;;;;;;;5048683;28;38731;-79
2021/07/03 07:49:37;;;;;;;17.02;12.93;;;;;;;;;;5029249;28;49046;-81
2021/07/03 07:52:04;;;;;;;15.82;12.63;;;;;;;;;;5057172;28;38338;-81
2021/07/03 07:54:31;;;;;;;19.42;15.20;;;;;;;;;;5055377;28;36958;-80
2021/07/03 07:56:59;;;;;;;16.00;13.20;;;;;;;;;;5069095;28;41222;-80
2021/07/03 07:59:33;;;;;;;21.70;13.88;;;;;;;;;;5052063;28;39595;-80
2021/07/03 08:02:00;;;;;;;15.02;12.73;;;;;;;;;;5060205;28;38843;-81
2021/07/03 08:04:27;;;;;;;16.70;13.00;;;;;;;;;;5057868;28;37741;-81
2021/07/03 08:06:54;;;;;;;13.98;11.90;;;;;;;;;;5039672;28;39126;-80
2021/07/03 08:09:23;;;;;;;17.85;12.43;;;;;;;;;;5044716;28;37875;-80
2021/07/03 08:11:50;;;;;;;14.88;12.40;;;;;;;;;;5058182;28;37691;-80
2021/07/03 08:14:18;;;;;;;16.77;11.73;;;;;;;;;;5035651;28;36145;-81
2021/07/03 08:16:45;;;;;;;15.55;11.73;;;;;;;;;;5057565;28;38569;-80
2021/07/03 08:19:28;;;;;;;15.35;12.75;;;;;;;;;;5061757;28;20046;-81
2021/07/03 08:21:57;;;;;;;16.42;11.52;;;;;;;;;;5060034;28;37210;-80
2021/07/03 08:24:24;;;;;;;17.73;12.27;;;;;;;;;;5061548;28;37699;-80
2021/07/03 08:26:51;;;;;;;17.73;12.70;;;;;;;;;;5046278;28;37831;-80
2021/07/03 08:29:20;;;;;;;15.45;13.45;;;;;;;;;;5044882;28;39258;-81
2021/07/03 08:31:48;;;;;;;15.18;12.52;;;;;;;;;;5034391;28;38313;-81
2021/07/03 08:34:14;;;;;;;16.73;13.60;;;;;;;;;;5057431;28;37576;-80
2021/07/03 08:36:42;;;;;;;16.10;12.73;;;;;;;;;;5040076;28;39846;-80
2021/07/03 08:39:08;;;;;;;18.30;14.18;;;;;;;;;;5040412;28;38576;-80
2021/07/03 08:41:35;;;;;;;15.80;12.55;;;;;;;;;;5035678;28;38126;-80
2021/07/03 08:44:02;;;;;;;16.08;12.98;;;;;;;;;;5038072;28;38062;-79
2021/07/03 08:46:29;;;;;;;16.38;13.52;;;;;;;;;;5046095;28;38674;-80
2021/07/03 08:48:59;;;;;;;16.25;12.95;;;;;;;;;;5053690;28;38849;-80
2021/07/03 08:51:25;;;;;;;14.98;11.35;;;;;;;;;;5053828;28;38038;-81
2021/07/03 08:53:52;;;;;;;14.20;12.70;;;;;;;;;;5044392;28;35877;-80
2021/07/03 08:56:25;;;;;;;13.45;11.23;;;;;;;;;;5048672;28;40475;-81
2021/07/03 08:58:52;;;;;;;15.82;12.40;;;;;;;;;;5060804;28;37667;-80
2021/07/03 09:01:18;;;;;;;16.48;12.85;;;;;;;;;;5050839;28;38292;-80
2021/07/03 09:03:52;;;;;;;14.70;11.60;;;;;;;;;;5053632;28;38154;-80
2021/07/03 09:06:28;;;;;;;13.90;11.35;;;;;;;;;;5059628;28;38162;-81
2021/07/03 09:08:55;;;;;;;12.77;10.75;;;;;;;;;;5054427;28;38472;-80
2021/07/03 09:11:21;;;;;;;13.27;11.95;;;;;;;;;;5046806;28;39599;-80
2021/07/03 09:13:56;;;;;;;14.77;11.95;;;;;;;;;;5072089;28;36901;-81
2021/07/03 09:16:31;;;;;;;14.05;12.55;;;;;;;;;;5047613;28;38632;-81
2021/07/03 09:18:58;;;;;;;13.48;11.40;;;;;;;;;;5058515;28;38427;-80
2021/07/03 09:21:25;;;;;;;16.42;12.27;;;;;;;;;;5067524;28;39203;-80
2021/07/03 09:23:51;;;;;;;13.98;12.35;;;;;;;;;;5052875;28;36048;-79
2021/07/03 09:26:18;;;;;;;15.40;12.80;;;;;;;;;;5040428;28;40148;-80
2021/07/03 09:28:46;;;;;;;14.25;12.13;;;;;;;;;;5044229;28;38898;-80
2021/07/03 09:31:14;;;;;;;16.88;12.32;;;;;;;;;;5074230;28;38794;-80
2021/07/03 09:33:51;;;;;;;14.45;12.82;;;;;;;;;;5073442;28;37197;-80
2021/07/03 09:36:27;;;;;;;16.15;12.45;;;;;;;;;;5053963;28;38927;-79
2021/07/03 09:38:54;;;;;;;14.77;12.23;;;;;;;;;;5056032;28;39947;-80
2021/07/03 09:41:23;;;;;;;17.88;12.90;;;;;;;;;;5050735;28;39922;-80
2021/07/03 09:43:52;;;;;;;15.95;13.25;;;;;;;;;;5055829;28;35818;-80
2021/07/03 09:46:24;;;;;;;17.48;13.93;;;;;;;;;;5083463;28;37705;-81
2021/07/03 09:48:50;;;;;;;;;;;;;;;;;;5055114;28;38124;-79
2021/07/03 09:51:17;;;;;;;15.13;12.90;;;;;;;;;;5041815;28;38501;-80
2021/07/03 09:53:44;;;;;;;18.48;14.38;;;;;;;;;;5040336;28;36848;-80
2021/07/03 09:56:11;;;;;;;15.63;13.55;;;;;;;;;;5039737;28;37285;-81
2021/07/03 09:58:37;;;;;;;15.10;13.15;;;;;;;;;;5061454;28;38355;-80
2021/07/03 10:01:18;;;;;;;20.55;17.35;;;;;;;;;;5069195;28;37825;-80
2021/07/03 10:04:06;;;;;;;21.70;17.25;;;;;;;;;;5054120;28;37295;-81
2021/07/03 10:06:49;;;;;;;24.05;17.70;;;;;;;;;;5067915;28;48464;-81
2021/07/03 10:09:51;;;;;;;22.02;17.55;;;;;;;;;;5047291;28;37069;-81
2021/07/03 10:12:27;;;;;;;23.77;19.20;;;;;;;;;;5046899;28;39663;-81
2021/07/03 10:14:53;;;;;;;21.95;18.35;;;;;;;;;;5051568;28;36477;-81
2021/07/03 10:17:30;;;;;;;23.90;19.00;;;;;;;;;;5057760;28;39936;-80
2021/07/03 10:19:57;;;;;;;23.92;19.73;;;;;;;;;;5042259;28;38763;-80
2021/07/03 10:22:24;;;;;;;21.42;19.02;;;;;;;;;;5039981;28;38739;-80
2021/07/03 10:24:54;;;;;;;22.58;17.92;;;;;;;;;;5047990;28;37661;-80
2021/07/03 10:27:21;;;;;;;22.17;18.13;;;;;;;;;;5049641;28;40264;-82
2021/07/03 11:14:53;;;;;;;8.20;7.32;;;;;;;;;;5801770;22;20041;-81
2021/07/03 11:17:21;;;;;;;8.50;7.65;;;;;;;;;;5066981;28;38818;-79
2021/07/03 11:19:50;;;;;;;8.57;7.78;;;;;;;;;;5100110;28;36211;-80
2021/07/03 11:22:22;;;;;;;7.68;6.90;;;;;;;;;;5094851;28;41002;-81
2021/07/03 11:24:57;;;;;;;9.30;6.53;;;;;;;;;;5055344;28;38827;-81
2021/07/03 11:27:26;;;;;;;6.80;6.10;;;;;;;;;;5076942;28;38773;-81
2021/07/03 11:30:11;;;;;;;6.93;5.85;;;;;;;;;;5059928;28;36314;-81
2021/07/03 11:33:02;;;;;;;7.28;6.57;;;;;;;;;;5052545;28;48210;-81
2021/07/03 11:35:30;;;;;;;7.55;6.05;;;;;;;;;;5034792;28;48901;-81
2021/07/03 11:38:11;;;;;;;7.20;5.93;;;;;;;;;;5055140;28;39269;-81
2021/07/03 11:40:42;;;;;;;8.05;5.80;;;;;;;;;;5060734;28;37306;-82
2021/07/03 11:43:12;;;;;;;5.63;4.90;;;;;;;;;;5056396;28;39085;-80
2021/07/03 11:45:42;;;;;;;7.90;5.07;;;;;;;;;;5056480;28;38790;-80
2021/07/03 11:48:13;;;;;;;7.65;5.40;;;;;;;;;;5075196;28;38552;-80
2021/07/03 11:50:44;;;;;;;6.75;5.00;;;;;;;;;;5083496;28;37260;-78
2021/07/03 11:53:17;;;;;;;5.80;5.30;;;;;;;;;;5072252;28;41107;-80
2021/07/03 11:55:47;;;;;;;6.50;5.30;;;;;;;;;;5063879;28;38759;-79
2021/07/03 11:58:43;;;;;;;7.00;5.43;;;;;;;;;;5074700;28;39499;-80
2021/07/03 12:01:14;;;;;;;6.20;5.60;;;;;;;;;;5086061;28;37275;-80
2021/07/03 12:03:45;;;;;;;6.97;5.30;;;;;;;;;;5071276;28;39156;-81
2021/07/03 12:06:18;;;;;;;6.57;5.97;;;;;;;;;;5032866;28;37421;-80
2021/07/03 12:08:51;;;;;;;6.53;5.93;;;;;;;;;;5086625;28;38867;-81
2021/07/03 12:11:24;;;;;;;5.78;5.18;;;;;;;;;;5046232;28;37213;-81
2021/07/03 12:14:00;;;;;;;5.97;5.38;;;;;;;;;;5499318;22;39470;-80
2021/07/03 12:16:30;;;;;;;6.13;5.50;;;;;;;;;;5027663;28;46305;-80
2021/07/03 12:21:50;;;;;;;8.88;5.30;;;;;;;;;;5081916;22;20049;-80
2021/07/03 12:34:07;;;;;;;6.85;4.93;;;;;;;;;;5347896;22;49708;-80
2021/07/03 12:36:37;;;;;;;6.22;5.47;;;;;;;;;;5057985;28;48504;-79
2021/07/03 12:39:14;;;;;;;5.60;4.78;;;;;;;;;;5061825;28;38801;-82
2021/07/03 12:41:45;;;;;;;5.50;5.00;;;;;;;;;;5049627;28;38615;-79
2021/07/03 12:44:44;;;;;;;4.63;4.23;;;;;;;;;;5050068;28;36031;-81
2021/07/03 12:47:42;;;;;;;5.80;4.60;;;;;;;;;;5338301;22;20327;-80
2021/07/03 12:50:29;;;;;;;5.70;4.43;;;;;;;;;;5737022;22;38248;-81
2021/07/03 12:53:22;;;;;;;6.15;4.88;;;;;;;;;;5051327;28;48886;-81
2021/07/03 12:55:51;;;;;;;5.50;4.50;;;;;;;;;;5044581;28;48142;-80
2021/07/03 12:58:18;;;;;;;7.07;5.10;;;;;;;;;;5069275;28;39543;-81
2021/07/03 13:00:46;;;;;;;4.78;4.10;;;;;;;;;;5076667;28;38026;-81
2021/07/03 13:03:12;;;;;;;7.90;4.55;;;;;;;;;;5062524;28;38630;-81
2021/07/03 13:05:39;;;;;;;5.00;3.88;;;;;;;;;;5066243;28;36001;-80
2021/07/03 13:08:06;;;;;;;4.75;4.20;;;;;;;;;;5072075;28;37759;-80
2021/07/03 13:10:36;;;;;;;7.47;4.68;;;;;;;;;;5081662;28;38007;-81
2021/07/03 13:15:58;;;;;;;6.55;4.28;;;;;;;;;;5092895;22;20044;-80
2021/07/03 13:19:01;;;;;;;4.78;4.38;;;;;;;;;;5076324;28;37650;-80
2021/07/03 13:21:37;;;;;;;5.25;4.13;;;;;;;;;;5088155;28;49663;-82
2021/07/03 13:32:36;;;;;;;8.00;6.35;;;;;;;;;;6056530;22;20045;-81
2021/07/03 13:52:43;;;;;;;9.07;7.95;;;;;;;;;;4887781;26;20041;-79
2021/07/03 13:55:21;;;;;;;10.55;7.35;;;;;;;;;;5019554;28;38940;-80
2021/07/03 13:58:01;;;;;;;7.68;6.88;;;;;;;;;;5034774;28;40192;-80
2021/07/03 14:00:49;;;;;;;7.85;7.05;;;;;;;;;;5025700;28;36823;-80
2021/07/03 14:04:04;;;;;;;;;;;;;;;;;;;;;
2021/07/03 14:06:47;;;;;;;8.93;7.40;;;;;;;;;;4945615;28;49115;-79
2021/07/03 14:09:17;;;;;;;9.00;7.90;;;;;;;;;;4978803;28;39499;-80
2021/07/03 14:12:00;;;;;;;10.02;9.00;;;;;;;;;;5004972;28;36139;-79
2021/07/03 15:19:15;;;;;;;9.80;8.03;;;;;;;;;;6213983;22;21914;-79
2021/07/03 15:56:08;;;;;;;12.75;10.52;;;;;;;;;;5139567;22;20067;-80
2021/07/03 15:58:34;;;;;;;12.50;10.55;;;;;;;;;;5105690;28;37915;-80
2021/07/03 16:01:23;;;;;;;11.05;9.77;;;;;;;;;;5080105;28;39012;-79
2021/07/03 16:03:50;;;;;;;15.05;11.38;;;;;;;;;;5074676;28;47920;-79
2021/07/03 16:06:16;;;;;;;11.45;9.63;;;;;;;;;;5069583;28;38093;-78
2021/07/03 16:33:29;;;;;;;15.25;11.55;;;;;;;;;;5366311;22;20053;-81
2021/07/03 17:09:59;;;;;;;15.27;13.52;;;;;;;;;;5477984;22;20051;-83
2021/07/03 17:32:28;;;;;;;13.13;11.82;;;;;;;;;;5043209;28;20038;-82
2021/07/03 17:34:55;;;;;;;14.05;12.20;;;;;;;;;;5066494;28;39260;-82
2021/07/03 17:37:23;;;;;;;14.32;11.77;;;;;;;;;;5116779;22;38167;-83
2021/07/03 17:39:56;;;;;;;16.90;14.20;;;;;;;;;;5074084;28;38355;-82
2021/07/03 17:42:24;;;;;;;16.13;13.13;;;;;;;;;;5072480;28;39606;-81
2021/07/03 17:44:56;;;;;;;17.73;14.32;;;;;;;;;;5075451;28;39406;-83
2021/07/03 17:47:27;;;;;;;18.27;14.95;;;;;;;;;;5071198;28;38433;-83
2021/07/03 17:50:02;;;;;;;16.15;13.90;;;;;;;;;;5085690;28;37451;-83
2021/07/03 17:52:29;;;;;;;19.05;14.90;;;;;;;;;;5074385;28;39284;-82
2021/07/03 18:00:11;;;;;;;24.63;19.02;;;;;;;;;;5796211;22;20049;-80
2021/07/03 18:02:43;;;;;;;20.77;17.25;;;;;;;;;;5075244;28;36224;-81
2021/07/03 18:05:10;;;;;;;24.27;17.93;;;;;;;;;;6010513;22;38570;-81
2021/07/03 18:07:48;;;;;;;20.75;16.92;;;;;;;;;;5871430;22;36402;-82
2021/07/03 18:25:53;;;;;;;22.08;18.27;;;;;;;;;;5185942;22;20036;-81
2021/07/03 18:28:27;;;;;;;21.98;18.20;;;;;;;;;;5105444;27;38228;-81
2021/07/03 18:30:53;;;;;;;19.63;16.60;;;;;;;;;;5092313;28;38907;-82
2021/07/03 18:33:20;;;;;;;21.05;17.92;;;;;;;;;;5085779;28;38351;-82
2021/07/03 18:35:49;;;;;;;17.67;15.00;;;;;;;;;;5103768;28;38438;-80
2021/07/03 18:38:23;;;;;;;19.63;15.77;;;;;;;;;;5090133;28;38807;-82
2021/07/03 18:40:50;;;;;;;19.70;15.57;;;;;;;;;;5088130;28;38130;-83
2021/07/03 18:43:17;;;;;;;19.17;17.08;;;;;;;;;;5092712;28;37205;-83
2021/07/03 18:45:55;;;;;;;23.25;15.95;;;;;;;;;;5092935;28;39279;-82
2021/07/03 18:48:22;;;;;;;20.88;17.23;;;;;;;;;;5091065;28;38774;-82
2021/07/03 18:50:49;;;;;;;17.33;15.48;;;;;;;;;;5089677;22;39850;-84
2021/07/03 18:53:17;;;;;;;16.38;14.63;;;;;;;;;;5085013;28;37577;-82
2021/07/03 18:55:47;;;;;;;16.90;14.35;;;;;;;;;;5093071;28;39172;-82
2021/07/03 18:58:14;;;;;;;16.17;14.48;;;;;;;;;;5091832;28;38427;-82
2021/07/03 19:00:41;;;;;;;14.48;12.40;;;;;;;;;;5088145;28;39554;-83
2021/07/03 19:03:11;;;;;;;21.55;15.68;;;;;;;;;;5079398;28;37577;-82
2021/07/03 19:05:37;;;;;;;17.73;14.30;;;;;;;;;;5086542;28;39288;-82
2021/07/03 19:08:06;;;;;;;17.00;13.65;;;;;;;;;;5086960;28;37949;-82
2021/07/03 19:10:33;;;;;;;17.15;13.60;;;;;;;;;;5092809;28;38657;-81
2021/07/03 19:13:33;;;;;;;18.70;14.68;;;;;;;;;;5096110;28;38294;-82
2021/07/03 19:16:08;;;;;;;17.55;14.88;;;;;;;;;;5069364;28;48531;-81
2021/07/03 19:18:38;;;;;;;19.58;14.63;;;;;;;;;;5099141;28;48228;-82
2021/07/03 19:21:30;;;;;;;16.00;13.98;;;;;;;;;;5075634;28;38642;-81
2021/07/03 19:24:02;;;;;;;18.83;14.52;;;;;;;;;;5089258;28;38337;-83
2021/07/03 19:26:53;;;;;;;17.48;15.05;;;;;;;;;;5091760;28;48361;-82
2021/07/03 19:29:43;;;;;;;19.55;15.32;;;;;;;;;;5095051;28;39109;-82
2021/07/03 19:32:20;;;;;;;18.35;15.90;;;;;;;;;;5087136;28;40420;-82
2021/07/03 19:35:06;;;;;;;22.70;16.17;;;;;;;;;;5097243;28;37415;-82
2021/07/03 19:37:49;;;;;;;20.38;16.27;;;;;;;;;;5095521;28;47366;-82
2021/07/03 19:40:16;;;;;;;18.85;15.98;;;;;;;;;;5090514;28;38634;-82
2021/07/03 19:42:47;;;;;;;21.55;18.60;;;;;;;;;;5096816;28;37979;-82
2021/07/03 19:45:15;;;;;;;19.80;16.02;;;;;;;;;;5080308;28;37090;-81
2021/07/03 19:47:42;;;;;;;21.63;18.00;;;;;;;;;;5093024;28;38955;-81
2021/07/03 19:50:09;;;;;;;21.20;16.20;;;;;;;;;;5077484;28;38820;-80
2021/07/03 19:52:36;;;;;;;19.17;15.75;;;;;;;;;;5080831;28;38168;-82
2021/07/03 19:55:05;;;;;;;21.83;18.30;;;;;;;;;;5086451;28;37159;-82
2021/07/03 19:57:31;;;;;;;21.38;16.73;;;;;;;;;;5082417;28;47441;-82
2021/07/03 19:59:58;;;;;;;20.98;17.70;;;;;;;;;;5077278;28;38131;-82
2021/07/03 20:02:28;;;;;;;19.95;16.75;;;;;;;;;;5078556;28;37017;-82
2021/07/03 20:04:55;;;;;;;23.48;17.83;;;;;;;;;;5081004;28;36260;-81
2021/07/03 20:07:28;;;;;;;22.98;19.05;;;;;;;;;;5071564;28;38133;-82
2021/07/03 20:09:55;;;;;;;20.33;17.88;;;;;;;;;;5084510;28;38821;-82
2021/07/03 20:12:22;;;;;;;20.60;16.55;;;;;;;;;;5075643;28;38319;-82
2021/07/03 20:14:48;;;;;;;20.63;18.30;;;;;;;;;;5081355;28;35550;-82
2021/07/03 20:17:15;;;;;;;21.10;17.90;;;;;;;;;;5073795;28;38406;-82
2021/07/03 20:19:52;;;;;;;20.15;17.88;;;;;;;;;;5079843;28;38715;-82
2021/07/03 20:22:18;;;;;;;21.85;17.95;;;;;;;;;;5071028;28;37595;-82
2021/07/03 20:24:53;;;;;;;24.17;18.85;;;;;;;;;;5080459;28;37392;-82
2021/07/03 20:27:22;;;;;;;20.65;18.45;;;;;;;;;;5080614;28;38981;-81
2021/07/03 20:29:52;;;;;;;19.52;17.35;;;;;;;;;;5089675;28;37551;-81
2021/07/03 20:32:18;;;;;;;23.08;19.58;;;;;;;;;;5083969;28;38311;-82
2021/07/03 20:34:48;;;;;;;24.00;19.05;;;;;;;;;;5079222;28;36555;-82
2021/07/03 20:37:15;;;;;;;23.52;18.80;;;;;;;;;;5080980;28;38254;-82
2021/07/03 20:39:41;;;;;;;22.73;19.70;;;;;;;;;;5085101;28;38428;-82
2021/07/03 20:42:09;;;;;;;25.10;19.70;;;;;;;;;;5087494;28;38432;-82
2021/07/03 20:44:37;;;;;;;26.60;21.75;;;;;;;;;;5078925;28;36220;-83
2021/07/03 20:47:10;;;;;;;27.42;20.45;;;;;;;;;;5089163;28;39320;-82
2021/07/03 20:49:38;;;;;;;21.77;18.83;;;;;;;;;;5090048;28;38490;-83
2021/07/03 20:52:08;;;;;;;23.10;20.05;;;;;;;;;;5087221;28;40133;-84
2021/07/03 20:54:38;;;;;;;24.92;19.75;;;;;;;;;;5090977;28;37198;-82
2021/07/03 20:57:07;;;;;;;23.45;19.73;;;;;;;;;;5077730;28;38597;-84
2021/07/03 20:59:35;;;;;;;24.05;18.83;;;;;;;;;;5090972;28;39004;-83
2021/07/03 21:02:04;;;;;;;24.98;20.30;;;;;;;;;;5476393;22;38332;-82
2021/07/03 21:07:46;;;;;;;28.20;21.05;;;;;;;;;;5083880;28;50430;-82
2021/07/03 21:10:13;;;;;;;22.33;19.70;;;;;;;;;;5309918;22;40264;-82
2021/07/03 21:12:58;;;;;;;24.77;22.00;;;;;;;;;;5089311;28;38437;-82
2021/07/03 21:15:25;;;;;;;26.75;21.73;;;;;;;;;;5647081;22;37689;-83
2021/07/03 21:17:52;;;;;;;22.83;19.13;;;;;;;;;;5045103;28;38864;-82
2021/07/03 21:20:20;;;;;;;29.30;23.65;;;;;;;;;;5048977;28;37329;-81
2021/07/03 21:22:51;;;;;;;27.60;20.35;;;;;;;;;;5068418;28;37492;-81
2021/07/03 21:25:18;;;;;;;26.10;21.40;;;;;;;;;;5053247;28;38568;-81
2021/07/03 21:27:48;;;;;;;27.77;23.27;;;;;;;;;;5068227;28;38761;-81
2021/07/03 21:33:01;;;;;;;27.02;21.98;;;;;;;;;;5188046;22;20041;-82
2021/07/03 21:35:35;;;;;;;24.90;20.85;;;;;;;;;;5084627;28;47878;-82
2021/07/03 21:38:02;;;;;;;28.10;22.73;;;;;;;;;;5087719;28;37891;-82
2021/07/03 21:40:39;;;;;;;28.23;21.73;;;;;;;;;;5087460;28;37835;-82
2021/07/03 21:43:15;;;;;;;27.08;22.23;;;;;;;;;;5089423;28;38027;-82
2021/07/03 21:45:43;;;;;;;24.65;21.25;;;;;;;;;;5090696;28;37362;-82
2021/07/03 21:48:19;;;;;;;31.58;24.10;;;;;;;;;;5090155;28;38638;-83
2021/07/03 21:50:50;;;;;;;27.90;22.45;;;;;;;;;;5087105;28;38159;-82
2021/07/03 21:55:54;;;;;;;26.85;22.40;;;;;;;;;;5185614;22;20047;-81
2021/07/03 21:58:21;;;;;;;27.25;23.20;;;;;;;;;;5103333;28;36755;-81
2021/07/03 22:00:52;;;;;;;28.13;23.02;;;;;;;;;;5090297;28;38649;-82
2021/07/03 22:03:20;;;;;;;33.80;25.30;;;;;;;;;;5079554;28;39642;-82
2021/07/03 22:05:48;;;;;;;29.63;23.58;;;;;;;;;;5090730;28;36937;-81
2021/07/03 22:08:22;;;;;;;29.27;22.05;;;;;;;;;;5087297;28;39229;-80
2021/07/03 22:13:27;;;;;;;34.08;25.80;;;;;;;;;;5585490;22;20053;-82
2021/07/03 22:15:56;;;;;;;27.63;23.02;;;;;;;;;;5077981;28;37476;-81
2021/07/03 22:18:31;;;;;;;27.27;22.33;;;;;;;;;;5094940;28;38956;-81
2021/07/03 22:21:00;;;;;;;27.05;21.80;;;;;;;;;;5082259;28;38574;-80
2021/07/03 22:23:28;;;;;;;29.23;23.92;;;;;;;;;;5080614;28;37596;-81
2021/07/03 22:25:58;;;;;;;26.58;21.23;;;;;;;;;;5082643;28;37274;-82
2021/07/03 22:28:25;;;;;;;28.10;22.15;;;;;;;;;;5073325;28;41818;-82
2021/07/03 22:30:52;;;;;;;29.40;22.08;;;;;;;;;;5083967;28;39171;-83
2021/07/03 22:35:55;;;;;;;24.52;20.08;;;;;;;;;;5047931;28;20073;-82
2021/07/03 22:38:30;;;;;;;26.80;22.83;;;;;;;;;;5050664;28;38796;-83
2021/07/03 23:25:13;;;;;;;24.52;20.60;;;;;;;;;;5874607;22;20254;-83
